Time;durP1;ratioP1;P1;durP2;ratioP2;P2;SDS_P1;SDS_P2;PMS_P1;PMS_P2;Temp;Humidity;BMP_temperature;BMP_pressure;BME280_temperature;BME280_humidity;BME280_pressure;Samples;Min_cycle;Max_cycle;Signal;HPM_P1;HPM_P2
2023/09/07 00:00:36;;;;;;;3.80;3.50;;;26.00;49.70;;;;;;4999680;28;20441;-44
2023/09/07 00:03:01;;;;;;;5.73;4.03;;;26.00;50.00;;;;;;5000772;28;20222;-46
2023/09/07 00:05:27;;;;;;;3.90;3.60;;;26.00;49.90;;;;;;5008462;28;20230;-44
2023/09/07 00:07:53;;;;;;;3.60;3.40;;;26.10;49.70;;;;;;5011184;28;20248;-45
2023/09/07 00:10:18;;;;;;;4.37;3.27;;;26.20;49.60;;;;;;5007812;28;20186;-44
2023/09/07 00:12:44;;;;;;;3.77;3.40;;;26.20;49.40;;;;;;5008382;28;20658;-45
2023/09/07 00:15:10;;;;;;;4.63;3.63;;;26.20;49.20;;;;;;5005050;28;20190;-45
2023/09/07 00:17:36;;;;;;;4.60;3.90;;;26.20;49.10;;;;;;5005271;28;20567;-44
2023/09/07 00:20:14;;;;;;;4.67;4.27;;;26.10;49.50;;;;;;5006281;28;20424;-44
2023/09/07 00:22:40;;;;;;;3.57;3.27;;;26.10;49.30;;;;;;5010115;28;20497;-45
2023/09/07 00:25:06;;;;;;;4.30;3.87;;;26.10;49.30;;;;;;5014821;28;20488;-44
2023/09/07 00:27:33;;;;;;;3.63;3.33;;;26.10;49.30;;;;;;5006731;28;20503;-46
2023/09/07 00:29:59;;;;;;;3.93;3.63;;;26.10;49.30;;;;;;5007479;28;20452;-45
2023/09/07 00:32:24;;;;;;;3.67;3.37;;;26.10;49.30;;;;;;5012529;28;20444;-45
2023/09/07 00:34:50;;;;;;;3.27;3.07;;;26.10;49.30;;;;;;5016117;28;20252;-45
2023/09/07 00:37:15;;;;;;;3.67;3.33;;;26.00;49.10;;;;;;5015432;28;20574;-44
2023/09/07 00:39:41;;;;;;;3.83;3.10;;;26.00;49.10;;;;;;5009988;28;20221;-45
2023/09/07 00:42:06;;;;;;;4.53;3.77;;;26.00;49.40;;;;;;5007347;28;20201;-46
2023/09/07 00:44:32;;;;;;;3.67;3.37;;;25.90;49.50;;;;;;5014009;28;20209;-44
2023/09/07 00:46:58;;;;;;;3.90;3.60;;;25.90;49.40;;;;;;5014444;28;20743;-45
2023/09/07 00:49:24;;;;;;;3.37;3.00;;;25.90;49.40;;;;;;5009887;28;20194;-45
2023/09/07 00:51:51;;;;;;;3.40;3.10;;;26.00;49.40;;;;;;5008534;28;20230;-46
2023/09/07 00:54:18;;;;;;;3.33;2.80;;;26.00;49.40;;;;;;5011131;28;20528;-45
2023/09/07 00:56:43;;;;;;;3.20;3.00;;;25.90;49.20;;;;;;4997982;28;20480;-44
2023/09/07 00:59:11;;;;;;;3.20;2.90;;;25.90;49.40;;;;;;5011962;28;21003;-45
2023/09/07 01:01:36;;;;;;;3.60;3.37;;;25.90;49.30;;;;;;5008947;28;20213;-45
2023/09/07 01:04:03;;;;;;;5.20;3.50;;;25.90;49.20;;;;;;5009915;28;20460;-45
2023/09/07 01:06:43;;;;;;;4.00;2.73;;;25.90;49.30;;;;;;5010209;28;20201;-45
2023/09/07 01:09:17;;;;;;;3.00;2.80;;;25.90;49.30;;;;;;5004810;28;20456;-44
2023/09/07 01:11:43;;;;;;;3.30;3.10;;;25.90;49.10;;;;;;5006494;28;20928;-44
2023/09/07 01:14:10;;;;;;;4.23;3.07;;;25.90;49.30;;;;;;5004668;28;20446;-44
2023/09/07 01:16:38;;;;;;;2.87;2.63;;;25.90;49.40;;;;;;5007955;28;20490;-44
2023/09/07 01:19:06;;;;;;;3.47;3.17;;;25.90;49.20;;;;;;5009104;28;20519;-45
2023/09/07 01:21:38;;;;;;;4.03;3.53;;;25.90;49.30;;;;;;5009612;28;20451;-44
2023/09/07 01:24:14;;;;;;;4.03;3.53;;;25.90;49.10;;;;;;5012918;28;20452;-44
2023/09/07 01:26:40;;;;;;;3.50;3.23;;;25.90;49.30;;;;;;5010107;28;20586;-48
2023/09/07 01:29:06;;;;;;;3.50;3.00;;;25.80;49.20;;;;;;5009303;28;20441;-44
2023/09/07 01:31:38;;;;;;;3.53;3.23;;;25.90;49.10;;;;;;5010269;28;20194;-44
2023/09/07 01:34:06;;;;;;;5.93;3.27;;;25.90;49.10;;;;;;5006178;28;20595;-44
2023/09/07 01:36:32;;;;;;;3.93;3.60;;;25.90;49.60;;;;;;5010046;28;20441;-47
2023/09/07 01:38:58;;;;;;;3.60;3.33;;;25.90;48.90;;;;;;5010983;28;20444;-45
2023/09/07 01:41:23;;;;;;;3.47;3.20;;;25.90;48.80;;;;;;5012278;28;20456;-47
2023/09/07 01:43:49;;;;;;;4.87;3.80;;;25.80;48.60;;;;;;5010219;28;20653;-45
2023/09/07 01:46:14;;;;;;;4.03;3.47;;;25.80;48.50;;;;;;5009494;28;20222;-45
2023/09/07 01:48:42;;;;;;;4.10;3.70;;;25.70;48.70;;;;;;5010414;28;20252;-44
2023/09/07 01:51:07;;;;;;;3.97;3.67;;;25.60;49.10;;;;;;5012323;28;20245;-45
2023/09/07 01:53:33;;;;;;;3.83;3.23;;;25.60;48.60;;;;;;5008856;28;21053;-45
2023/09/07 01:55:59;;;;;;;3.60;3.40;;;25.50;49.00;;;;;;5008519;28;20198;-44
2023/09/07 01:58:25;;;;;;;3.80;3.40;;;25.40;49.70;;;;;;5011804;28;20198;-44
2023/09/07 02:00:52;;;;;;;3.30;3.00;;;25.40;49.80;;;;;;5003282;28;20190;-44
2023/09/07 02:03:18;;;;;;;2.90;2.70;;;25.30;49.90;;;;;;5009449;28;20208;-44
2023/09/07 02:05:46;;;;;;;3.37;3.17;;;25.40;49.70;;;;;;5005915;28;20488;-46
2023/09/07 02:08:11;;;;;;;3.67;2.80;;;25.30;49.70;;;;;;5010221;28;20194;-45
2023/09/07 02:10:37;;;;;;;3.17;2.97;;;25.40;49.60;;;;;;5010599;28;20441;-47
2023/09/07 02:13:03;;;;;;;6.77;3.40;;;25.40;49.70;;;;;;5011466;28;20190;-45
2023/09/07 02:15:29;;;;;;;3.30;3.10;;;25.40;49.70;;;;;;5012226;28;20246;-46
2023/09/07 02:17:55;;;;;;;3.47;3.17;;;25.30;49.80;;;;;;5009895;28;20453;-44
2023/09/07 02:20:20;;;;;;;4.20;3.90;;;25.20;50.00;;;;;;5002155;28;20251;-49
2023/09/07 02:22:46;;;;;;;3.67;3.37;;;25.00;50.10;;;;;;5005477;28;20607;-44
2023/09/07 02:25:11;;;;;;;4.97;3.20;;;25.10;50.30;;;;;;4999151;28;20218;-44
2023/09/07 02:27:38;;;;;;;6.93;3.63;;;25.10;50.20;;;;;;5003176;28;20217;-44
2023/09/07 02:30:04;;;;;;;3.90;3.10;;;25.20;49.90;;;;;;5004192;28;20193;-46
2023/09/07 02:32:31;;;;;;;3.80;3.50;;;25.20;49.70;;;;;;5000524;28;20456;-44
2023/09/07 02:34:57;;;;;;;3.10;2.80;;;25.30;49.40;;;;;;5005918;28;20437;-44
2023/09/07 02:37:23;;;;;;;5.20;3.53;;;25.30;49.50;;;;;;5003111;28;20815;-44
2023/09/07 02:39:48;;;;;;;3.37;3.07;;;25.30;49.70;;;;;;5004053;28;20190;-44
2023/09/07 02:42:14;;;;;;;3.60;3.30;;;25.20;49.70;;;;;;5002860;28;20688;-45
2023/09/07 02:44:39;;;;;;;3.70;3.40;;;25.30;49.40;;;;;;5005147;28;20232;-45
2023/09/07 02:47:05;;;;;;;3.47;3.20;;;25.20;49.40;;;;;;5002028;28;20276;-45
2023/09/07 02:49:31;;;;;;;4.40;3.90;;;25.20;49.10;;;;;;5003108;28;20209;-44
2023/09/07 02:51:57;;;;;;;3.90;3.60;;;25.20;49.00;;;;;;5000722;28;20242;-43
2023/09/07 02:54:23;;;;;;;4.83;3.00;;;25.20;49.20;;;;;;5004785;28;20260;-45
2023/09/07 02:56:49;;;;;;;3.80;3.50;;;25.10;49.70;;;;;;5007992;28;20436;-45
2023/09/07 02:59:15;;;;;;;4.03;3.63;;;25.10;49.70;;;;;;5010170;28;20444;-45
2023/09/07 03:01:40;;;;;;;3.20;3.00;;;25.10;49.60;;;;;;5008924;28;20194;-46
2023/09/07 03:04:07;;;;;;;3.80;3.50;;;25.10;49.50;;;;;;5010716;28;20201;-47
2023/09/07 03:06:32;;;;;;;3.70;3.40;;;25.00;49.30;;;;;;5009561;28;20199;-44
2023/09/07 03:08:58;;;;;;;4.00;3.70;;;25.00;50.10;;;;;;5010625;28;20437;-44
2023/09/07 03:11:24;;;;;;;3.50;3.20;;;24.90;49.40;;;;;;5010803;28;20208;-46
2023/09/07 03:13:49;;;;;;;5.20;4.70;;;24.90;49.70;;;;;;5005247;28;20542;-48
2023/09/07 03:16:15;;;;;;;5.73;5.17;;;25.00;48.60;;;;;;5010702;28;20741;-47
2023/09/07 03:18:41;;;;;;;4.37;3.93;;;25.00;48.00;;;;;;5008872;28;20198;-45
2023/09/07 03:21:06;;;;;;;3.90;3.60;;;25.00;48.00;;;;;;5001982;28;20208;-49
2023/09/07 03:23:33;;;;;;;4.87;4.47;;;25.00;48.10;;;;;;4999833;28;20213;-49
2023/09/07 03:25:59;;;;;;;3.70;3.40;;;25.00;48.20;;;;;;5004476;28;20272;-46
2023/09/07 03:28:25;;;;;;;3.90;3.60;;;25.00;48.50;;;;;;5009019;28;20472;-46
2023/09/07 03:30:54;;;;;;;4.77;4.37;;;25.00;48.60;;;;;;5010024;28;20194;-49
2023/09/07 03:33:22;;;;;;;4.17;3.73;;;24.90;48.60;;;;;;5011400;28;20441;-50
2023/09/07 03:35:48;;;;;;;4.00;3.70;;;24.90;48.30;;;;;;5010976;28;20445;-47
2023/09/07 03:38:14;;;;;;;5.30;4.33;;;24.90;48.40;;;;;;5005515;28;20452;-49
2023/09/07 03:40:39;;;;;;;4.23;3.83;;;24.90;48.40;;;;;;5005869;28;20198;-46
2023/09/07 03:43:05;;;;;;;4.40;4.00;;;24.90;48.50;;;;;;5010031;28;20197;-48
2023/09/07 03:45:38;;;;;;;3.87;3.47;;;24.90;48.60;;;;;;5012429;28;20228;-45
2023/09/07 03:48:04;;;;;;;4.50;4.03;;;24.90;48.30;;;;;;5006522;28;20745;-46
2023/09/07 03:50:37;;;;;;;4.20;3.80;;;24.80;48.10;;;;;;4979439;28;20540;-51
2023/09/07 03:53:03;;;;;;;5.53;4.60;;;24.80;48.30;;;;;;5007810;28;21043;-47
2023/09/07 03:55:28;;;;;;;4.57;4.13;;;24.70;48.60;;;;;;5003761;28;20451;-49
2023/09/07 03:57:54;;;;;;;5.47;4.07;;;24.70;48.70;;;;;;5004175;28;20516;-49
2023/09/07 04:00:20;;;;;;;4.10;3.80;;;24.70;48.80;;;;;;5000253;28;20292;-45
2023/09/07 04:02:45;;;;;;;4.20;3.80;;;24.70;49.00;;;;;;5002407;28;20313;-45
2023/09/07 04:05:11;;;;;;;4.73;4.33;;;24.60;49.20;;;;;;5000407;28;20218;-49
2023/09/07 04:07:38;;;;;;;5.00;4.60;;;24.60;48.70;;;;;;5003367;28;20186;-48
2023/09/07 04:10:04;;;;;;;5.33;3.90;;;24.60;49.40;;;;;;5004102;28;20260;-46
2023/09/07 04:12:30;;;;;;;5.20;4.17;;;24.60;49.20;;;;;;4999464;28;20526;-47
2023/09/07 04:14:55;;;;;;;4.30;3.90;;;24.60;49.00;;;;;;5005695;28;20878;-46
2023/09/07 04:17:21;;;;;;;4.30;3.50;;;24.50;49.30;;;;;;4994449;28;20304;-45
2023/09/07 04:19:46;;;;;;;5.07;4.53;;;24.50;49.40;;;;;;5007853;28;20724;-46
2023/09/07 04:22:12;;;;;;;4.37;3.43;;;24.40;49.40;;;;;;5007808;28;20260;-46
2023/09/07 04:24:38;;;;;;;7.23;4.10;;;24.40;49.30;;;;;;5009716;28;20284;-45
2023/09/07 04:27:04;;;;;;;4.03;3.73;;;24.30;49.40;;;;;;5008127;28;20195;-46
2023/09/07 04:29:30;;;;;;;4.53;4.10;;;24.20;49.60;;;;;;5011020;28;20209;-45
2023/09/07 04:31:55;;;;;;;3.60;3.30;;;24.10;49.40;;;;;;5001164;28;20437;-45
2023/09/07 04:34:22;;;;;;;4.20;3.80;;;24.00;49.50;;;;;;5010282;28;20223;-46
2023/09/07 04:36:47;;;;;;;4.30;3.60;;;23.90;50.20;;;;;;5012195;28;20205;-45
2023/09/07 04:39:14;;;;;;;5.50;4.63;;;24.00;50.40;;;;;;5012328;28;20429;-45
2023/09/07 04:41:40;;;;;;;6.70;4.03;;;24.10;50.40;;;;;;5012568;28;20205;-45
2023/09/07 04:44:05;;;;;;;6.03;4.63;;;24.10;49.90;;;;;;5009906;28;20429;-45
2023/09/07 04:46:31;;;;;;;6.97;5.10;;;24.10;49.50;;;;;;5003164;28;20452;-45
2023/09/07 04:48:57;;;;;;;5.00;4.50;;;24.00;49.50;;;;;;4999699;28;20201;-46
2023/09/07 04:51:23;;;;;;;6.73;4.87;;;23.90;49.60;;;;;;5002344;28;20226;-48
2023/09/07 04:53:50;;;;;;;5.83;4.43;;;23.70;50.20;;;;;;5001826;28;20230;-46
2023/09/07 04:56:16;;;;;;;5.00;4.20;;;23.60;51.30;;;;;;5002811;28;20496;-48
2023/09/07 04:58:42;;;;;;;7.40;4.90;;;23.60;51.20;;;;;;5002543;28;20260;-44
2023/09/07 05:01:11;;;;;;;4.40;3.87;;;23.60;50.80;;;;;;5000792;28;20198;-44
2023/09/07 05:03:37;;;;;;;3.73;3.40;;;23.00;53.00;;;;;;5000860;28;20194;-45
2023/09/07 05:06:04;;;;;;;4.97;3.80;;;23.00;53.30;;;;;;5005636;28;20503;-46
2023/09/07 05:08:30;;;;;;;6.33;3.53;;;23.20;52.80;;;;;;5002841;28;20455;-45
2023/09/07 05:10:59;;;;;;;6.93;4.07;;;23.60;52.10;;;;;;4985742;28;20536;-45
2023/09/07 05:13:26;;;;;;;4.63;4.13;;;23.80;51.70;;;;;;5009226;28;20225;-49
2023/09/07 05:15:53;;;;;;;4.07;3.77;;;24.00;51.20;;;;;;5008888;28;20967;-44
2023/09/07 05:18:19;;;;;;;4.20;3.60;;;24.00;50.90;;;;;;5007689;28;20452;-46
2023/09/07 05:20:45;;;;;;;3.87;3.60;;;24.20;50.80;;;;;;5006463;28;20451;-45
2023/09/07 05:23:19;;;;;;;4.00;3.60;;;24.30;50.70;;;;;;4994229;28;20453;-46
2023/09/07 05:25:52;;;;;;;5.93;3.87;;;24.30;50.60;;;;;;5011364;28;20490;-46
2023/09/07 05:28:18;;;;;;;4.07;3.77;;;24.40;50.40;;;;;;5011180;28;20447;-44
2023/09/07 05:30:44;;;;;;;5.60;4.00;;;24.50;50.20;;;;;;5010491;28;20524;-48
2023/09/07 05:33:19;;;;;;;4.20;3.80;;;24.60;50.30;;;;;;5005871;28;20532;-44
2023/09/07 05:35:54;;;;;;;4.20;3.90;;;24.70;49.80;;;;;;5011162;28;20190;-43
2023/09/07 05:38:20;;;;;;;4.40;3.97;;;24.70;49.30;;;;;;5013879;28;20833;-46
2023/09/07 05:40:50;;;;;;;4.07;3.77;;;24.70;49.70;;;;;;5011858;28;20448;-44
2023/09/07 05:43:15;;;;;;;8.33;4.03;;;24.80;49.70;;;;;;5010836;28;20448;-45
2023/09/07 05:45:41;;;;;;;3.67;3.37;;;24.80;49.70;;;;;;5006477;28;20491;-45
2023/09/07 05:48:08;;;;;;;4.33;3.93;;;24.80;49.70;;;;;;5009447;28;20199;-47
2023/09/07 05:50:37;;;;;;;3.73;3.43;;;24.80;49.80;;;;;;5011599;28;20441;-44
2023/09/07 05:53:03;;;;;;;7.30;3.60;;;24.90;49.70;;;;;;5009098;28;20920;-45
2023/09/07 05:55:30;;;;;;;3.93;3.53;;;24.90;49.60;;;;;;5011638;28;20456;-44
2023/09/07 05:57:56;;;;;;;5.20;4.20;;;25.00;49.60;;;;;;5010353;28;20441;-45
2023/09/07 06:00:23;;;;;;;5.90;3.80;;;24.80;49.40;;;;;;5011775;28;20437;-44
2023/09/07 06:02:49;;;;;;;5.10;4.60;;;24.80;49.80;;;;;;5013704;28;20499;-45
2023/09/07 06:05:15;;;;;;;5.77;5.33;;;24.80;49.50;;;;;;5013664;28;20996;-45
2023/09/07 06:07:41;;;;;;;5.30;4.80;;;24.70;49.40;;;;;;5013985;28;20536;-44
2023/09/07 06:10:07;;;;;;;4.47;3.70;;;24.50;50.50;;;;;;5011956;28;20193;-44
2023/09/07 06:12:33;;;;;;;5.80;4.00;;;24.50;50.40;;;;;;5010345;28;20656;-46
2023/09/07 06:15:02;;;;;;;4.67;3.90;;;24.70;50.40;;;;;;5013504;28;20198;-46
2023/09/07 06:17:28;;;;;;;4.30;3.90;;;24.80;50.10;;;;;;5012897;28;20456;-44
2023/09/07 06:19:54;;;;;;;3.70;3.30;;;24.80;50.00;;;;;;5011767;28;20438;-44
2023/09/07 06:22:20;;;;;;;4.50;4.10;;;24.90;49.90;;;;;;5011273;28;20202;-47
2023/09/07 06:24:46;;;;;;;7.33;3.90;;;24.90;49.80;;;;;;5012251;28;21263;-47
2023/09/07 06:27:11;;;;;;;5.30;3.70;;;25.00;49.70;;;;;;5010725;28;20198;-44
2023/09/07 06:29:37;;;;;;;6.27;3.27;;;25.20;49.60;;;;;;5013972;28;20225;-44
2023/09/07 06:32:02;;;;;;;3.93;3.47;;;25.20;49.40;;;;;;5010562;28;20198;-45
2023/09/07 06:34:28;;;;;;;4.20;3.90;;;25.30;49.30;;;;;;5012936;28;20198;-48
2023/09/07 06:36:53;;;;;;;4.60;4.17;;;25.40;49.30;;;;;;5011677;28;20186;-44
2023/09/07 06:39:19;;;;;;;4.47;4.07;;;25.40;49.20;;;;;;5012379;28;20664;-45
2023/09/07 06:41:46;;;;;;;5.10;4.33;;;25.40;49.10;;;;;;5002839;28;21908;-46
2023/09/07 06:44:12;;;;;;;4.80;4.40;;;25.50;49.00;;;;;;4998262;28;20559;-44
2023/09/07 06:46:37;;;;;;;4.07;3.77;;;25.60;49.10;;;;;;4999614;28;20448;-44
2023/09/07 06:49:03;;;;;;;5.67;3.80;;;25.70;48.90;;;;;;5005237;28;20209;-45
2023/09/07 06:51:30;;;;;;;4.43;4.00;;;25.70;48.90;;;;;;5012525;28;20309;-44
2023/09/07 06:53:56;;;;;;;4.20;3.90;;;25.80;48.80;;;;;;5002798;28;20672;-44
2023/09/07 06:56:22;;;;;;;5.90;4.50;;;25.90;48.80;;;;;;5011268;28;20453;-44
2023/09/07 06:58:47;;;;;;;4.53;4.13;;;25.90;48.90;;;;;;5009267;28;20198;-46
2023/09/07 07:01:13;;;;;;;4.77;4.37;;;26.00;49.10;;;;;;5007579;28;20197;-45
2023/09/07 07:03:38;;;;;;;5.33;4.83;;;26.00;49.00;;;;;;5010750;28;20194;-48
2023/09/07 07:06:04;;;;;;;6.43;4.47;;;26.00;49.00;;;;;;5008823;28;20228;-44
2023/09/07 07:08:29;;;;;;;5.33;4.83;;;26.00;48.90;;;;;;5008379;28;20276;-45
2023/09/07 07:10:55;;;;;;;9.03;5.60;;;26.10;49.00;;;;;;5008822;28;20194;-45
2023/09/07 07:13:21;;;;;;;4.90;4.50;;;26.10;48.90;;;;;;5010761;28;20194;-44
2023/09/07 07:15:46;;;;;;;5.07;4.67;;;26.20;48.90;;;;;;5008269;28;20198;-44
2023/09/07 07:18:12;;;;;;;4.83;4.30;;;26.20;48.70;;;;;;5009529;28;20198;-45
2023/09/07 07:20:39;;;;;;;5.10;4.50;;;26.30;48.70;;;;;;5005410;28;20194;-44
2023/09/07 07:23:08;;;;;;;7.53;4.97;;;26.30;48.70;;;;;;5000077;28;20205;-45
2023/09/07 07:25:34;;;;;;;5.07;4.40;;;26.40;48.80;;;;;;5008167;28;20484;-44
2023/09/07 07:28:06;;;;;;;4.80;4.37;;;26.40;48.60;;;;;;5004620;28;20456;-47
2023/09/07 07:30:36;;;;;;;11.87;5.30;;;26.40;48.50;;;;;;5000726;28;20445;-45
2023/09/07 07:33:06;;;;;;;6.00;5.40;;;26.50;48.60;;;;;;5004474;28;20448;-44
2023/09/07 07:35:32;;;;;;;5.70;4.20;;;26.50;48.70;;;;;;5011046;28;20453;-45
2023/09/07 07:38:04;;;;;;;5.40;4.53;;;26.60;48.80;;;;;;5005549;28;20433;-46
2023/09/07 07:40:30;;;;;;;5.40;4.90;;;26.50;48.70;;;;;;5006505;28;20507;-44
2023/09/07 07:42:56;;;;;;;4.53;4.10;;;26.60;48.60;;;;;;5004167;28;20793;-44
2023/09/07 07:45:22;;;;;;;4.93;4.43;;;26.60;48.50;;;;;;5003854;28;20528;-48
2023/09/07 07:47:52;;;;;;;11.77;5.13;;;26.70;48.60;;;;;;5000311;28;20194;-48
2023/09/07 07:50:18;;;;;;;10.93;5.37;;;26.60;48.60;;;;;;5001923;28;20308;-45
2023/09/07 07:52:44;;;;;;;8.53;4.80;;;26.70;48.50;;;;;;5008102;28;20490;-45
2023/09/07 07:55:10;;;;;;;5.80;5.30;;;26.70;48.40;;;;;;5005919;28;20445;-44
2023/09/07 07:57:36;;;;;;;9.93;5.20;;;26.70;48.10;;;;;;5004668;28;20208;-44
2023/09/07 08:00:04;;;;;;;6.73;5.73;;;26.50;48.50;;;;;;5006519;28;20816;-43
2023/09/07 08:02:29;;;;;;;5.37;4.90;;;26.60;48.20;;;;;;5008625;28;20197;-44
2023/09/07 08:04:55;;;;;;;5.00;4.60;;;26.70;48.10;;;;;;5006026;28;20856;-47
2023/09/07 08:07:21;;;;;;;5.63;5.13;;;26.80;48.40;;;;;;5006109;28;20712;-47
2023/09/07 08:09:46;;;;;;;7.93;5.57;;;26.80;48.50;;;;;;5007600;28;20215;-45
2023/09/07 08:12:12;;;;;;;5.60;5.20;;;26.70;48.40;;;;;;5011628;28;20194;-44
2023/09/07 08:14:38;;;;;;;5.67;5.17;;;26.80;48.20;;;;;;5000961;28;20496;-44
2023/09/07 08:17:04;;;;;;;7.83;5.10;;;26.90;48.10;;;;;;5004879;28;20571;-45
2023/09/07 08:19:29;;;;;;;5.73;5.30;;;27.10;48.30;;;;;;5005292;28;20209;-44
2023/09/07 08:21:55;;;;;;;6.13;5.63;;;27.20;48.30;;;;;;5006080;28;20704;-44
2023/09/07 08:24:20;;;;;;;5.10;4.70;;;27.30;47.50;;;;;;5007906;28;20556;-44
2023/09/07 08:26:51;;;;;;;5.03;4.63;;;27.50;47.30;;;;;;5006338;28;20272;-47
2023/09/07 08:29:16;;;;;;;5.80;5.30;;;27.50;47.20;;;;;;5000968;28;20202;-45
2023/09/07 08:31:45;;;;;;;5.37;4.87;;;27.30;48.10;;;;;;4998727;28;20940;-45
2023/09/07 08:34:14;;;;;;;5.90;5.40;;;27.40;47.90;;;;;;5000185;28;20197;-45
2023/09/07 08:36:40;;;;;;;7.00;5.43;;;27.70;47.90;;;;;;5001132;28;20890;-48
2023/09/07 08:39:08;;;;;;;10.90;5.83;;;27.70;47.00;;;;;;4998037;28;20452;-44
2023/09/07 08:41:41;;;;;;;5.40;5.00;;;27.90;47.00;;;;;;5014137;28;20662;-44
2023/09/07 08:44:09;;;;;;;5.53;5.13;;;27.80;47.30;;;;;;5011378;28;20464;-45
2023/09/07 08:46:35;;;;;;;5.30;4.80;;;28.10;47.20;;;;;;5013594;28;20464;-45
2023/09/07 08:49:02;;;;;;;5.83;5.43;;;28.30;46.90;;;;;;5013578;28;20448;-44
2023/09/07 08:51:28;;;;;;;6.27;5.10;;;28.40;46.40;;;;;;5013865;28;20558;-46
2023/09/07 08:53:56;;;;;;;5.70;5.20;;;28.50;45.90;;;;;;5012945;28;20495;-45
2023/09/07 08:56:22;;;;;;;5.77;5.13;;;28.50;46.70;;;;;;5012966;28;20186;-45
2023/09/07 08:58:49;;;;;;;7.03;6.27;;;28.70;46.00;;;;;;5014218;28;20437;-45
2023/09/07 09:01:15;;;;;;;6.50;5.80;;;28.80;45.70;;;;;;5014945;28;20428;-45
2023/09/07 09:03:42;;;;;;;5.40;5.00;;;28.90;45.10;;;;;;5013409;28;20787;-46
2023/09/07 09:06:09;;;;;;;5.80;4.90;;;29.10;45.60;;;;;;5014434;28;20233;-45
2023/09/07 09:08:52;;;;;;;5.53;5.03;;;29.30;45.60;;;;;;5015346;28;20483;-45
2023/09/07 09:11:18;;;;;;;6.20;5.70;;;29.20;45.50;;;;;;5013551;28;20456;-45
2023/09/07 09:13:44;;;;;;;5.70;5.20;;;29.20;45.70;;;;;;5007689;28;20527;-45
2023/09/07 09:16:12;;;;;;;6.10;5.57;;;29.40;45.10;;;;;;5013613;28;20447;-44
2023/09/07 09:18:38;;;;;;;6.83;5.20;;;29.60;45.00;;;;;;5014092;28;20998;-44
2023/09/07 09:21:05;;;;;;;6.67;5.50;;;29.80;44.50;;;;;;5013938;28;20460;-45
2023/09/07 09:23:38;;;;;;;6.97;5.43;;;30.00;44.10;;;;;;5012207;28;20524;-44
2023/09/07 09:26:05;;;;;;;5.80;5.30;;;30.10;44.10;;;;;;5010520;28;20488;-48
2023/09/07 09:28:34;;;;;;;6.80;5.83;;;30.20;43.80;;;;;;5011897;28;20457;-46
2023/09/07 09:31:02;;;;;;;6.10;5.60;;;30.40;43.70;;;;;;5013295;28;20456;-47
2023/09/07 09:33:30;;;;;;;6.10;5.60;;;30.50;43.60;;;;;;5011523;28;20464;-46
2023/09/07 09:35:56;;;;;;;6.37;4.67;;;30.30;43.30;;;;;;5012148;28;20444;-48
2023/09/07 09:38:22;;;;;;;8.30;5.37;;;30.40;42.80;;;;;;5011051;28;20452;-47
2023/09/07 09:40:48;;;;;;;5.07;4.57;;;30.60;43.50;;;;;;5000462;28;20456;-49
2023/09/07 09:43:13;;;;;;;5.73;5.30;;;30.70;43.30;;;;;;5013273;28;20193;-47
2023/09/07 09:45:39;;;;;;;5.87;5.37;;;30.70;43.10;;;;;;5013137;28;20593;-48
2023/09/07 09:48:06;;;;;;;6.37;5.00;;;30.80;42.70;;;;;;5003297;28;20199;-49
2023/09/07 09:50:37;;;;;;;6.60;4.50;;;31.00;42.40;;;;;;5001170;28;20564;-47
2023/09/07 09:53:07;;;;;;;5.50;5.00;;;31.10;42.20;;;;;;5006729;28;20480;-49
2023/09/07 09:55:33;;;;;;;6.00;5.43;;;31.30;42.40;;;;;;5006207;28;20451;-46
2023/09/07 09:57:59;;;;;;;5.53;5.10;;;31.30;42.20;;;;;;5009739;28;20867;-46
2023/09/07 10:00:26;;;;;;;5.40;4.90;;;31.30;42.40;;;;;;5011142;28;20480;-47
2023/09/07 10:03:15;;;;;;;6.07;5.57;;;31.50;42.80;;;;;;5010159;28;20531;-45
2023/09/07 10:05:41;;;;;;;5.60;5.00;;;31.60;41.40;;;;;;4966624;28;20511;-47
2023/09/07 10:08:13;;;;;;;9.13;5.63;;;31.70;41.60;;;;;;5009161;28;20940;-45
2023/09/07 10:10:40;;;;;;;5.60;5.20;;;31.90;41.10;;;;;;5006766;28;20202;-45
2023/09/07 10:13:06;;;;;;;5.30;4.83;;;32.10;40.50;;;;;;5005388;28;20447;-45
2023/09/07 10:15:33;;;;;;;6.20;5.60;;;32.20;40.80;;;;;;5007008;28;20441;-45
2023/09/07 10:18:16;;;;;;;5.47;5.07;;;32.40;40.90;;;;;;5007007;28;20194;-48
2023/09/07 10:20:58;;;;;;;5.33;4.93;;;32.50;40.50;;;;;;5001305;28;20459;-45
2023/09/07 10:23:40;;;;;;;5.90;4.70;;;32.60;40.80;;;;;;5008986;28;20499;-44
2023/09/07 10:26:15;;;;;;;5.90;5.40;;;32.60;39.60;;;;;;5006109;28;20496;-46
2023/09/07 10:28:41;;;;;;;5.30;4.80;;;32.80;39.80;;;;;;5006974;28;20522;-44
2023/09/07 10:31:27;;;;;;;5.77;5.27;;;33.00;39.50;;;;;;5012954;28;20451;-44
2023/09/07 10:33:53;;;;;;;5.20;4.80;;;33.10;38.80;;;;;;5010905;28;21063;-45
2023/09/07 10:36:23;;;;;;;5.13;4.70;;;33.00;38.70;;;;;;5010021;28;20487;-46
2023/09/07 10:38:52;;;;;;;5.63;5.13;;;33.30;38.60;;;;;;5001191;28;20237;-47
2023/09/07 10:41:17;;;;;;;6.50;5.17;;;33.60;38.70;;;;;;5000555;28;20508;-46
2023/09/07 10:43:51;;;;;;;5.77;5.37;;;33.70;38.20;;;;;;5010841;28;20441;-48
2023/09/07 10:46:22;;;;;;;5.70;5.20;;;33.90;37.90;;;;;;5005628;28;20790;-48
2023/09/07 10:48:52;;;;;;;5.60;5.20;;;33.90;37.10;;;;;;5010644;28;20421;-48
2023/09/07 10:51:18;;;;;;;5.37;5.07;;;33.60;37.60;;;;;;5006130;28;20476;-44
2023/09/07 10:53:44;;;;;;;5.20;4.70;;;33.40;37.70;;;;;;5009547;28;20472;-47
2023/09/07 10:56:10;;;;;;;5.60;5.20;;;33.70;38.20;;;;;;5006178;28;20535;-48
2023/09/07 10:58:39;;;;;;;5.23;4.77;;;33.90;37.60;;;;;;5008884;28;20280;-46
2023/09/07 11:01:05;;;;;;;6.17;5.63;;;34.30;37.20;;;;;;5006403;28;20523;-44
2023/09/07 11:03:31;;;;;;;5.87;5.27;;;34.30;36.10;;;;;;5010379;28;20468;-47
2023/09/07 11:06:28;;;;;;;6.00;5.60;;;34.10;36.70;;;;;;5009447;28;20233;-45
2023/09/07 11:08:54;;;;;;;5.93;5.33;;;34.40;37.20;;;;;;5004909;28;20452;-45
2023/09/07 11:11:19;;;;;;;5.33;4.83;;;34.80;36.80;;;;;;5007461;28;20948;-45
2023/09/07 11:13:45;;;;;;;5.40;5.00;;;34.80;35.00;;;;;;5010201;28;20546;-46
2023/09/07 11:16:10;;;;;;;5.33;5.03;;;34.70;35.50;;;;;;5011084;28;20198;-47
2023/09/07 11:18:36;;;;;;;7.60;5.73;;;35.00;35.80;;;;;;5010516;28;20911;-45
2023/09/07 11:21:03;;;;;;;5.63;4.67;;;35.30;35.90;;;;;;5008176;28;20226;-44
2023/09/07 11:23:35;;;;;;;5.70;5.20;;;35.60;35.30;;;;;;5009385;28;20564;-45
2023/09/07 11:26:10;;;;;;;4.90;4.50;;;35.90;35.70;;;;;;5010393;28;20488;-46
2023/09/07 11:28:35;;;;;;;4.97;4.57;;;35.90;34.60;;;;;;5002949;28;20436;-49
2023/09/07 11:31:01;;;;;;;5.67;5.27;;;35.80;34.10;;;;;;5008795;28;20444;-45
2023/09/07 11:33:31;;;;;;;4.93;4.63;;;35.40;35.30;;;;;;5000337;28;20249;-45
2023/09/07 11:35:56;;;;;;;5.93;5.50;;;35.50;35.20;;;;;;5008529;28;20588;-45
2023/09/07 11:38:22;;;;;;;5.00;4.70;;;35.40;35.70;;;;;;5010992;28;20468;-46
2023/09/07 11:40:48;;;;;;;5.20;4.80;;;35.70;35.40;;;;;;5000653;28;20193;-45
2023/09/07 11:43:15;;;;;;;5.83;5.17;;;36.00;34.60;;;;;;5005154;28;20205;-45
2023/09/07 11:45:42;;;;;;;5.27;4.90;;;36.30;34.60;;;;;;5005954;28;20222;-45
2023/09/07 11:48:10;;;;;;;5.30;4.90;;;36.30;34.20;;;;;;5006569;28;20452;-45
2023/09/07 11:50:37;;;;;;;5.53;5.20;;;36.50;34.60;;;;;;5004924;28;20465;-45
2023/09/07 11:53:04;;;;;;;5.73;5.33;;;36.60;33.50;;;;;;5003937;28;20507;-45
2023/09/07 11:55:29;;;;;;;5.10;4.60;;;36.80;34.10;;;;;;5007992;28;20440;-45
2023/09/07 11:57:55;;;;;;;5.77;5.27;;;36.80;33.70;;;;;;5005784;28;20502;-45
2023/09/07 12:00:22;;;;;;;5.63;5.20;;;36.90;33.60;;;;;;5009900;28;20197;-45
2023/09/07 12:02:48;;;;;;;4.50;4.20;;;37.10;32.60;;;;;;5005575;28;20205;-49
2023/09/07 12:05:15;;;;;;;4.57;4.17;;;37.30;32.60;;;;;;5009884;28;20997;-47
2023/09/07 12:07:42;;;;;;;4.77;4.40;;;37.20;32.30;;;;;;4998308;28;20197;-48
2023/09/07 12:10:10;;;;;;;4.53;4.23;;;37.30;32.60;;;;;;5000796;28;20436;-48
2023/09/07 12:12:37;;;;;;;13.20;4.90;;;37.40;32.50;;;;;;4997056;28;20936;-45
2023/09/07 12:15:04;;;;;;;5.60;5.20;;;37.20;31.70;;;;;;5007817;28;20445;-46
2023/09/07 12:17:33;;;;;;;5.13;4.73;;;37.30;32.20;;;;;;5009886;28;20455;-45
2023/09/07 12:19:59;;;;;;;7.70;4.60;;;37.30;30.80;;;;;;5004541;28;21013;-45
2023/09/07 12:22:24;;;;;;;4.93;4.53;;;37.40;31.40;;;;;;5013257;28;20448;-46
2023/09/07 12:24:50;;;;;;;4.27;3.97;;;37.70;31.70;;;;;;5013287;28;20225;-50
2023/09/07 12:27:16;;;;;;;5.50;5.10;;;37.90;32.60;;;;;;4999466;28;20201;-49
2023/09/07 12:29:41;;;;;;;5.20;4.80;;;38.10;32.40;;;;;;5005516;28;20285;-47
2023/09/07 12:32:07;;;;;;;4.83;4.53;;;38.30;32.00;;;;;;5002543;28;20190;-46
2023/09/07 12:34:33;;;;;;;5.17;4.67;;;38.20;30.40;;;;;;5006698;28;20201;-48
2023/09/07 12:36:58;;;;;;;5.33;4.80;;;38.40;31.10;;;;;;5004324;28;20193;-46
2023/09/07 12:39:24;;;;;;;4.97;4.67;;;38.50;30.40;;;;;;5008316;28;20189;-47
2023/09/07 12:41:50;;;;;;;4.70;4.37;;;38.60;30.10;;;;;;5003506;28;20620;-47
2023/09/07 12:44:17;;;;;;;4.80;4.50;;;38.60;29.50;;;;;;5015134;28;20193;-48